sensor_id;sensor_type;location;lat;lon;timestamp;temperature;humidity
54202;DHT22;40108;53.152;5.844;2022-10-22T00:02:13;12.10;97.40
54202;DHT22;40108;53.152;5.844;2022-10-22T00:04:44;12.10;97.40
54202;DHT22;40108;53.152;5.844;2022-10-22T00:07:10;12.10;97.50
54202;DHT22;40108;53.152;5.844;2022-10-22T00:09:36;12.10;97.50
54202;DHT22;40108;53.152;5.844;2022-10-22T00:12:02;12.10;97.50
54202;DHT22;40108;53.152;5.844;2022-10-22T00:14:28;12.10;97.50
54202;DHT22;40108;53.152;5.844;2022-10-22T00:16:53;12.10;97.60
54202;DHT22;40108;53.152;5.844;2022-10-22T00:19:20;12.00;97.50
54202;DHT22;40108;53.152;5.844;2022-10-22T00:21:46;12.00;97.50
54202;DHT22;40108;53.152;5.844;2022-10-22T00:24:12;11.90;97.50
54202;DHT22;40108;53.152;5.844;2022-10-22T00:26:38;11.90;97.50
54202;DHT22;40108;53.152;5.844;2022-10-22T00:29:04;11.90;97.60
54202;DHT22;40108;53.152;5.844;2022-10-22T00:31:30;11.90;97.60
54202;DHT22;40108;53.152;5.844;2022-10-22T00:33:56;11.80;97.50
54202;DHT22;40108;53.152;5.844;2022-10-22T00:36:22;11.80;97.60
54202;DHT22;40108;53.152;5.844;2022-10-22T00:38:48;11.70;97.50
54202;DHT22;40108;53.152;5.844;2022-10-22T00:41:13;11.70;97.50
54202;DHT22;40108;53.152;5.844;2022-10-22T00:43:59;11.60;97.50
54202;DHT22;40108;53.152;5.844;2022-10-22T00:46:25;11.60;97.60
54202;DHT22;40108;53.152;5.844;2022-10-22T00:48:51;11.60;97.60
54202;DHT22;40108;53.152;5.844;2022-10-22T00:51:19;11.60;97.60
54202;DHT22;40108;53.152;5.844;2022-10-22T00:53:52;11.50;97.70
54202;DHT22;40108;53.152;5.844;2022-10-22T00:56:21;11.60;97.70
54202;DHT22;40108;53.152;5.844;2022-10-22T00:58:51;11.60;97.70
54202;DHT22;40108;53.152;5.844;2022-10-22T01:01:21;11.60;97.70
54202;DHT22;40108;53.152;5.844;2022-10-22T01:03:49;11.60;97.70
54202;DHT22;40108;53.152;5.844;2022-10-22T01:06:22;11.70;97.80
54202;DHT22;40108;53.152;5.844;2022-10-22T01:12:00;11.70;97.90
54202;DHT22;40108;53.152;5.844;2022-10-22T01:17:09;11.70;97.90
54202;DHT22;40108;53.152;5.844;2022-10-22T01:22:38;11.80;97.90
54202;DHT22;40108;53.152;5.844;2022-10-22T01:25:15;11.80;97.90
54202;DHT22;40108;53.152;5.844;2022-10-22T01:30:17;11.90;98.00
54202;DHT22;40108;53.152;5.844;2022-10-22T01:32:53;11.90;98.00
54202;DHT22;40108;53.152;5.844;2022-10-22T01:35:24;11.90;98.00
54202;DHT22;40108;53.152;5.844;2022-10-22T01:38:03;11.90;98.00
54202;DHT22;40108;53.152;5.844;2022-10-22T01:40:31;12.00;98.10
54202;DHT22;40108;53.152;5.844;2022-10-22T01:43:00;12.00;98.10
54202;DHT22;40108;53.152;5.844;2022-10-22T01:45:27;12.00;98.10
54202;DHT22;40108;53.152;5.844;2022-10-22T02:01:17;12.30;98.10
54202;DHT22;40108;53.152;5.844;2022-10-22T02:03:55;12.40;98.10
54202;DHT22;40108;53.152;5.844;2022-10-22T02:06:24;12.40;98.20
54202;DHT22;40108;53.152;5.844;2022-10-22T02:08:51;12.50;98.10
54202;DHT22;40108;53.152;5.844;2022-10-22T02:11:17;12.50;98.10
54202;DHT22;40108;53.152;5.844;2022-10-22T02:13:52;12.60;98.10
54202;DHT22;40108;53.152;5.844;2022-10-22T02:16:37;12.60;98.10
54202;DHT22;40108;53.152;5.844;2022-10-22T02:19:16;12.60;98.10
54202;DHT22;40108;53.152;5.844;2022-10-22T02:21:43;12.70;98.10
54202;DHT22;40108;53.152;5.844;2022-10-22T02:24:09;12.60;98.10
54202;DHT22;40108;53.152;5.844;2022-10-22T02:26:43;12.70;98.10
54202;DHT22;40108;53.152;5.844;2022-10-22T02:29:21;12.70;98.10
54202;DHT22;40108;53.152;5.844;2022-10-22T02:31:50;12.70;98.10
54202;DHT22;40108;53.152;5.844;2022-10-22T02:34:20;12.70;98.10
54202;DHT22;40108;53.152;5.844;2022-10-22T02:36:48;12.70;98.00
54202;DHT22;40108;53.152;5.844;2022-10-22T02:39:15;12.70;98.00
54202;DHT22;40108;53.152;5.844;2022-10-22T02:41:42;12.70;98.00
54202;DHT22;40108;53.152;5.844;2022-10-22T02:44:09;12.80;98.00
54202;DHT22;40108;53.152;5.844;2022-10-22T02:46:39;12.80;98.00
54202;DHT22;40108;53.152;5.844;2022-10-22T02:49:05;12.80;98.00
54202;DHT22;40108;53.152;5.844;2022-10-22T02:51:31;12.80;98.00
54202;DHT22;40108;53.152;5.844;2022-10-22T02:53:57;12.80;98.10
54202;DHT22;40108;53.152;5.844;2022-10-22T02:56:22;12.90;98.00
54202;DHT22;40108;53.152;5.844;2022-10-22T02:58:48;12.90;98.00
54202;DHT22;40108;53.152;5.844;2022-10-22T03:01:14;13.00;98.00
54202;DHT22;40108;53.152;5.844;2022-10-22T03:03:39;13.00;98.00
54202;DHT22;40108;53.152;5.844;2022-10-22T03:06:05;13.00;98.00
54202;DHT22;40108;53.152;5.844;2022-10-22T03:08:31;13.10;98.00
54202;DHT22;40108;53.152;5.844;2022-10-22T03:10:57;13.10;97.90
54202;DHT22;40108;53.152;5.844;2022-10-22T03:13:22;13.10;97.90
54202;DHT22;40108;53.152;5.844;2022-10-22T03:15:49;13.10;97.80
54202;DHT22;40108;53.152;5.844;2022-10-22T03:18:15;13.10;97.80
54202;DHT22;40108;53.152;5.844;2022-10-22T03:20:41;13.10;97.80
54202;DHT22;40108;53.152;5.844;2022-10-22T03:23:06;13.10;97.80
54202;DHT22;40108;53.152;5.844;2022-10-22T03:25:33;13.10;97.80
54202;DHT22;40108;53.152;5.844;2022-10-22T03:28:02;13.10;97.70
54202;DHT22;40108;53.152;5.844;2022-10-22T03:30:28;13.10;97.70
54202;DHT22;40108;53.152;5.844;2022-10-22T03:32:53;13.10;97.70
54202;DHT22;40108;53.152;5.844;2022-10-22T03:35:19;13.10;97.70
54202;DHT22;40108;53.152;5.844;2022-10-22T03:37:45;13.10;97.60
54202;DHT22;40108;53.152;5.844;2022-10-22T03:40:11;13.10;97.60
54202;DHT22;40108;53.152;5.844;2022-10-22T03:42:39;13.10;97.50
54202;DHT22;40108;53.152;5.844;2022-10-22T03:45:05;13.10;97.50
54202;DHT22;40108;53.152;5.844;2022-10-22T03:47:31;13.10;97.50
54202;DHT22;40108;53.152;5.844;2022-10-22T03:49:57;13.10;97.50
54202;DHT22;40108;53.152;5.844;2022-10-22T03:52:23;13.10;97.40
54202;DHT22;40108;53.152;5.844;2022-10-22T03:54:48;13.00;97.40
54202;DHT22;40108;53.152;5.844;2022-10-22T03:57:14;12.90;97.40
54202;DHT22;40108;53.152;5.844;2022-10-22T03:59:42;12.90;97.30
54202;DHT22;40108;53.152;5.844;2022-10-22T04:02:09;12.90;97.30
54202;DHT22;40108;53.152;5.844;2022-10-22T04:04:35;12.90;97.30
54202;DHT22;40108;53.152;5.844;2022-10-22T04:07:01;12.80;97.30
54202;DHT22;40108;53.152;5.844;2022-10-22T04:09:30;12.80;97.30
54202;DHT22;40108;53.152;5.844;2022-10-22T04:11:57;12.70;97.30
54202;DHT22;40108;53.152;5.844;2022-10-22T04:14:22;12.70;97.30
54202;DHT22;40108;53.152;5.844;2022-10-22T04:16:48;12.70;97.30
54202;DHT22;40108;53.152;5.844;2022-10-22T04:19:14;12.70;97.30
54202;DHT22;40108;53.152;5.844;2022-10-22T04:21:39;12.70;97.30
54202;DHT22;40108;53.152;5.844;2022-10-22T04:24:05;12.70;97.30
54202;DHT22;40108;53.152;5.844;2022-10-22T04:26:31;12.70;97.30
54202;DHT22;40108;53.152;5.844;2022-10-22T04:28:57;12.70;97.40
54202;DHT22;40108;53.152;5.844;2022-10-22T04:31:24;12.70;97.30
54202;DHT22;40108;53.152;5.844;2022-10-22T04:33:55;12.80;97.30
54202;DHT22;40108;53.152;5.844;2022-10-22T04:36:21;12.80;97.30
54202;DHT22;40108;53.152;5.844;2022-10-22T04:38:52;12.80;97.20
54202;DHT22;40108;53.152;5.844;2022-10-22T04:41:21;12.80;97.20
54202;DHT22;40108;53.152;5.844;2022-10-22T04:43:47;12.90;97.20
54202;DHT22;40108;53.152;5.844;2022-10-22T04:46:14;12.90;97.20
54202;DHT22;40108;53.152;5.844;2022-10-22T04:48:42;12.90;97.10
54202;DHT22;40108;53.152;5.844;2022-10-22T04:51:11;12.80;97.10
54202;DHT22;40108;53.152;5.844;2022-10-22T04:53:37;12.90;97.10
54202;DHT22;40108;53.152;5.844;2022-10-22T04:56:12;12.80;97.10
54202;DHT22;40108;53.152;5.844;2022-10-22T04:58:38;12.80;97.00
54202;DHT22;40108;53.152;5.844;2022-10-22T05:03:36;12.80;97.00
54202;DHT22;40108;53.152;5.844;2022-10-22T05:06:01;12.80;97.00
54202;DHT22;40108;53.152;5.844;2022-10-22T05:08:27;12.80;97.00
54202;DHT22;40108;53.152;5.844;2022-10-22T05:10:53;12.80;97.00
54202;DHT22;40108;53.152;5.844;2022-10-22T05:13:18;12.80;96.90
54202;DHT22;40108;53.152;5.844;2022-10-22T05:15:44;12.80;97.00
54202;DHT22;40108;53.152;5.844;2022-10-22T05:18:10;12.80;96.90
54202;DHT22;40108;53.152;5.844;2022-10-22T05:20:39;12.80;96.90
54202;DHT22;40108;53.152;5.844;2022-10-22T05:23:05;12.80;96.90
54202;DHT22;40108;53.152;5.844;2022-10-22T05:25:31;12.80;96.90
54202;DHT22;40108;53.152;5.844;2022-10-22T05:27:56;12.80;96.90
54202;DHT22;40108;53.152;5.844;2022-10-22T05:30:22;12.80;96.90
54202;DHT22;40108;53.152;5.844;2022-10-22T05:32:48;12.70;96.90
54202;DHT22;40108;53.152;5.844;2022-10-22T05:35:13;12.70;96.90
54202;DHT22;40108;53.152;5.844;2022-10-22T05:37:39;12.70;96.90
54202;DHT22;40108;53.152;5.844;2022-10-22T05:40:05;12.70;96.90
54202;DHT22;40108;53.152;5.844;2022-10-22T05:42:32;12.60;96.90
54202;DHT22;40108;53.152;5.844;2022-10-22T05:44:57;12.70;96.90
54202;DHT22;40108;53.152;5.844;2022-10-22T05:47:23;12.70;97.00
54202;DHT22;40108;53.152;5.844;2022-10-22T05:49:49;12.70;97.00
54202;DHT22;40108;53.152;5.844;2022-10-22T05:52:15;12.60;97.00
54202;DHT22;40108;53.152;5.844;2022-10-22T05:54:40;12.70;97.00
54202;DHT22;40108;53.152;5.844;2022-10-22T05:57:06;12.70;97.10
54202;DHT22;40108;53.152;5.844;2022-10-22T05:59:32;12.70;97.10
54202;DHT22;40108;53.152;5.844;2022-10-22T06:01:57;12.60;97.10
54202;DHT22;40108;53.152;5.844;2022-10-22T06:04:23;12.70;97.10
54202;DHT22;40108;53.152;5.844;2022-10-22T06:06:50;12.60;97.10
54202;DHT22;40108;53.152;5.844;2022-10-22T06:09:22;12.70;97.20
54202;DHT22;40108;53.152;5.844;2022-10-22T06:11:49;12.70;97.20
54202;DHT22;40108;53.152;5.844;2022-10-22T06:14:16;12.60;97.20
54202;DHT22;40108;53.152;5.844;2022-10-22T06:16:41;12.70;97.20
54202;DHT22;40108;53.152;5.844;2022-10-22T06:19:10;12.60;97.20
54202;DHT22;40108;53.152;5.844;2022-10-22T06:21:36;12.70;97.30
54202;DHT22;40108;53.152;5.844;2022-10-22T06:24:02;12.70;97.30
54202;DHT22;40108;53.152;5.844;2022-10-22T06:26:28;12.70;97.30
54202;DHT22;40108;53.152;5.844;2022-10-22T06:28:55;12.70;97.30
54202;DHT22;40108;53.152;5.844;2022-10-22T06:31:21;12.70;97.30
54202;DHT22;40108;53.152;5.844;2022-10-22T06:33:47;12.70;97.30
54202;DHT22;40108;53.152;5.844;2022-10-22T06:36:15;12.70;97.30
54202;DHT22;40108;53.152;5.844;2022-10-22T06:38:42;12.70;97.30
54202;DHT22;40108;53.152;5.844;2022-10-22T06:41:18;12.70;97.40
54202;DHT22;40108;53.152;5.844;2022-10-22T06:43:44;12.70;97.30
54202;DHT22;40108;53.152;5.844;2022-10-22T06:46:12;12.70;97.40
54202;DHT22;40108;53.152;5.844;2022-10-22T06:48:38;12.70;97.40
54202;DHT22;40108;53.152;5.844;2022-10-22T06:51:09;12.70;97.40
54202;DHT22;40108;53.152;5.844;2022-10-22T06:53:36;12.70;97.40
54202;DHT22;40108;53.152;5.844;2022-10-22T06:56:10;12.70;97.40
54202;DHT22;40108;53.152;5.844;2022-10-22T06:58:37;12.70;97.50
54202;DHT22;40108;53.152;5.844;2022-10-22T07:01:08;12.70;97.50
54202;DHT22;40108;53.152;5.844;2022-10-22T07:03:34;12.80;97.50
54202;DHT22;40108;53.152;5.844;2022-10-22T07:06:05;12.80;97.50
54202;DHT22;40108;53.152;5.844;2022-10-22T07:08:32;12.80;97.50
54202;DHT22;40108;53.152;5.844;2022-10-22T07:11:06;12.80;97.50
54202;DHT22;40108;53.152;5.844;2022-10-22T07:13:32;12.90;97.50
54202;DHT22;40108;53.152;5.844;2022-10-22T07:15:58;12.90;97.50
54202;DHT22;40108;53.152;5.844;2022-10-22T07:18:24;12.90;97.50
54202;DHT22;40108;53.152;5.844;2022-10-22T07:20:50;12.90;97.40
54202;DHT22;40108;53.152;5.844;2022-10-22T07:23:16;12.90;97.40
54202;DHT22;40108;53.152;5.844;2022-10-22T07:25:42;13.00;97.40
54202;DHT22;40108;53.152;5.844;2022-10-22T07:28:08;13.00;97.40
54202;DHT22;40108;53.152;5.844;2022-10-22T07:30:36;13.00;97.30
54202;DHT22;40108;53.152;5.844;2022-10-22T07:33:02;13.00;97.30
54202;DHT22;40108;53.152;5.844;2022-10-22T07:35:28;13.00;97.30
54202;DHT22;40108;53.152;5.844;2022-10-22T07:37:53;13.10;97.30
54202;DHT22;40108;53.152;5.844;2022-10-22T07:40:19;13.10;97.30
54202;DHT22;40108;53.152;5.844;2022-10-22T07:42:45;13.10;97.40
54202;DHT22;40108;53.152;5.844;2022-10-22T07:45:11;13.10;97.40
54202;DHT22;40108;53.152;5.844;2022-10-22T07:47:36;13.20;97.40
54202;DHT22;40108;53.152;5.844;2022-10-22T07:50:03;13.30;97.40
54202;DHT22;40108;53.152;5.844;2022-10-22T07:52:28;13.30;97.30
54202;DHT22;40108;53.152;5.844;2022-10-22T07:54:54;13.40;97.20
54202;DHT22;40108;53.152;5.844;2022-10-22T07:57:20;13.40;97.20
54202;DHT22;40108;53.152;5.844;2022-10-22T07:59:45;13.60;97.30
54202;DHT22;40108;53.152;5.844;2022-10-22T08:02:11;13.60;97.30
54202;DHT22;40108;53.152;5.844;2022-10-22T08:04:37;13.80;97.20
54202;DHT22;40108;53.152;5.844;2022-10-22T08:07:03;14.00;97.20
54202;DHT22;40108;53.152;5.844;2022-10-22T08:09:29;14.10;97.00
54202;DHT22;40108;53.152;5.844;2022-10-22T08:11:55;14.20;96.70
54202;DHT22;40108;53.152;5.844;2022-10-22T08:14:21;14.40;96.50
54202;DHT22;40108;53.152;5.844;2022-10-22T08:16:46;14.50;96.20
54202;DHT22;40108;53.152;5.844;2022-10-22T08:19:12;14.50;95.70
54202;DHT22;40108;53.152;5.844;2022-10-22T08:21:38;14.60;95.50
54202;DHT22;40108;53.152;5.844;2022-10-22T08:24:05;14.70;95.10
54202;DHT22;40108;53.152;5.844;2022-10-22T08:26:31;15.00;94.70
54202;DHT22;40108;53.152;5.844;2022-10-22T08:28:57;15.10;94.60
54202;DHT22;40108;53.152;5.844;2022-10-22T08:31:22;15.40;94.50
54202;DHT22;40108;53.152;5.844;2022-10-22T08:33:48;15.60;94.30
54202;DHT22;40108;53.152;5.844;2022-10-22T08:36:14;15.80;93.30
54202;DHT22;40108;53.152;5.844;2022-10-22T08:38:40;15.70;92.20
54202;DHT22;40108;53.152;5.844;2022-10-22T08:41:16;15.60;91.90
54202;DHT22;40108;53.152;5.844;2022-10-22T08:46:54;15.40;91.90
54202;DHT22;40108;53.152;5.844;2022-10-22T08:49:32;15.30;92.30
54202;DHT22;40108;53.152;5.844;2022-10-22T08:51:59;15.30;92.30
54202;DHT22;40108;53.152;5.844;2022-10-22T08:59:56;15.30;92.60
54202;DHT22;40108;53.152;5.844;2022-10-22T09:08:06;15.30;92.40
54202;DHT22;40108;53.152;5.844;2022-10-22T09:10:35;15.40;92.40
54202;DHT22;40108;53.152;5.844;2022-10-22T09:13:02;15.30;92.00
54202;DHT22;40108;53.152;5.844;2022-10-22T09:15:28;15.20;92.10
54202;DHT22;40108;53.152;5.844;2022-10-22T09:18:21;15.20;92.00
54202;DHT22;40108;53.152;5.844;2022-10-22T09:20:53;15.20;92.30
54202;DHT22;40108;53.152;5.844;2022-10-22T09:23:38;15.10;92.40
54202;DHT22;40108;53.152;5.844;2022-10-22T09:26:14;15.10;92.20
54202;DHT22;40108;53.152;5.844;2022-10-22T09:28:41;15.10;92.50
54202;DHT22;40108;53.152;5.844;2022-10-22T09:31:11;15.10;92.60
54202;DHT22;40108;53.152;5.844;2022-10-22T09:33:38;15.10;92.60
54202;DHT22;40108;53.152;5.844;2022-10-22T09:36:05;15.10;92.80
54202;DHT22;40108;53.152;5.844;2022-10-22T09:38:38;15.20;92.60
54202;DHT22;40108;53.152;5.844;2022-10-22T09:41:04;15.20;92.30
54202;DHT22;40108;53.152;5.844;2022-10-22T09:43:31;15.20;92.50
54202;DHT22;40108;53.152;5.844;2022-10-22T09:46:00;15.40;92.60
54202;DHT22;40108;53.152;5.844;2022-10-22T09:48:40;15.50;92.20
54202;DHT22;40108;53.152;5.844;2022-10-22T09:51:26;15.50;92.20
54202;DHT22;40108;53.152;5.844;2022-10-22T09:54:07;15.40;91.90
54202;DHT22;40108;53.152;5.844;2022-10-22T09:56:41;15.40;92.10
54202;DHT22;40108;53.152;5.844;2022-10-22T09:59:15;15.30;92.30
54202;DHT22;40108;53.152;5.844;2022-10-22T10:01:41;15.30;92.50
54202;DHT22;40108;53.152;5.844;2022-10-22T10:04:13;15.40;92.60
54202;DHT22;40108;53.152;5.844;2022-10-22T10:06:42;15.60;92.90
54202;DHT22;40108;53.152;5.844;2022-10-22T10:09:21;15.70;92.30
54202;DHT22;40108;53.152;5.844;2022-10-22T10:11:58;15.70;91.80
54202;DHT22;40108;53.152;5.844;2022-10-22T10:14:52;15.70;91.80
54202;DHT22;40108;53.152;5.844;2022-10-22T10:17:41;15.60;91.90
54202;DHT22;40108;53.152;5.844;2022-10-22T10:25:57;15.80;92.50
54202;DHT22;40108;53.152;5.844;2022-10-22T10:34:01;16.00;91.90
54202;DHT22;40108;53.152;5.844;2022-10-22T10:36:44;16.00;92.20
54202;DHT22;40108;53.152;5.844;2022-10-22T10:50:26;15.60;93.00
54202;DHT22;40108;53.152;5.844;2022-10-22T11:01:33;15.10;94.40
54202;DHT22;40108;53.152;5.844;2022-10-22T11:06:36;15.10;94.90
54202;DHT22;40108;53.152;5.844;2022-10-22T11:09:26;15.10;95.10
54202;DHT22;40108;53.152;5.844;2022-10-22T11:12:01;15.10;95.20
54202;DHT22;40108;53.152;5.844;2022-10-22T11:14:34;15.10;95.40
54202;DHT22;40108;53.152;5.844;2022-10-22T11:17:08;15.10;95.50
54202;DHT22;40108;53.152;5.844;2022-10-22T11:19:49;15.20;95.50
54202;DHT22;40108;53.152;5.844;2022-10-22T11:22:27;15.20;95.50
54202;DHT22;40108;53.152;5.844;2022-10-22T11:25:44;15.20;95.50
54202;DHT22;40108;53.152;5.844;2022-10-22T11:27:54;15.10;95.50
54202;DHT22;40108;53.152;5.844;2022-10-22T11:30:23;15.10;95.50
54202;DHT22;40108;53.152;5.844;2022-10-22T11:32:54;15.10;95.50
54202;DHT22;40108;53.152;5.844;2022-10-22T11:35:27;15.10;95.60
54202;DHT22;40108;53.152;5.844;2022-10-22T11:37:56;15.10;95.70
54202;DHT22;40108;53.152;5.844;2022-10-22T11:42:57;15.10;96.00
54202;DHT22;40108;53.152;5.844;2022-10-22T11:48:16;15.10;96.10
54202;DHT22;40108;53.152;5.844;2022-10-22T11:50:58;15.20;96.10
54202;DHT22;40108;53.152;5.844;2022-10-22T11:53:35;15.30;96.30
54202;DHT22;40108;53.152;5.844;2022-10-22T12:03:40;15.70;95.90
54202;DHT22;40108;53.152;5.844;2022-10-22T12:08:44;15.90;95.70
54202;DHT22;40108;53.152;5.844;2022-10-22T12:11:14;16.10;95.40
54202;DHT22;40108;53.152;5.844;2022-10-22T12:14:10;16.20;95.30
54202;DHT22;40108;53.152;5.844;2022-10-22T12:16:58;16.20;94.90
54202;DHT22;40108;53.152;5.844;2022-10-22T12:19:35;16.30;94.80
54202;DHT22;40108;53.152;5.844;2022-10-22T12:24:48;16.30;94.50
54202;DHT22;40108;53.152;5.844;2022-10-22T12:27:23;16.40;94.50
54202;DHT22;40108;53.152;5.844;2022-10-22T12:29:56;16.40;94.50
54202;DHT22;40108;53.152;5.844;2022-10-22T12:32:22;16.30;94.40
54202;DHT22;40108;53.152;5.844;2022-10-22T12:34:50;16.40;94.40
54202;DHT22;40108;53.152;5.844;2022-10-22T12:37:17;16.40;94.40
54202;DHT22;40108;53.152;5.844;2022-10-22T12:39:44;16.40;94.30
54202;DHT22;40108;53.152;5.844;2022-10-22T12:42:13;16.40;94.40
54202;DHT22;40108;53.152;5.844;2022-10-22T12:44:39;16.40;94.00
54202;DHT22;40108;53.152;5.844;2022-10-22T12:47:06;16.50;93.90
54202;DHT22;40108;53.152;5.844;2022-10-22T12:49:38;16.50;93.70
54202;DHT22;40108;53.152;5.844;2022-10-22T12:52:06;16.60;93.20
54202;DHT22;40108;53.152;5.844;2022-10-22T12:54:33;16.60;93.00
54202;DHT22;40108;53.152;5.844;2022-10-22T12:57:00;16.60;92.60
54202;DHT22;40108;53.152;5.844;2022-10-22T12:59:33;16.70;92.30
54202;DHT22;40108;53.152;5.844;2022-10-22T13:02:00;16.80;92.50
54202;DHT22;40108;53.152;5.844;2022-10-22T13:12:13;17.10;91.00
54202;DHT22;40108;53.152;5.844;2022-10-22T13:14:43;17.10;90.20
54202;DHT22;40108;53.152;5.844;2022-10-22T13:17:14;17.10;90.20
54202;DHT22;40108;53.152;5.844;2022-10-22T13:22:28;17.10;89.70
54202;DHT22;40108;53.152;5.844;2022-10-22T13:24:55;17.00;88.90
54202;DHT22;40108;53.152;5.844;2022-10-22T13:27:22;17.00;89.10
54202;DHT22;40108;53.152;5.844;2022-10-22T13:29:48;16.90;88.80
54202;DHT22;40108;53.152;5.844;2022-10-22T13:32:31;16.90;88.80
54202;DHT22;40108;53.152;5.844;2022-10-22T13:35:01;16.90;89.20
54202;DHT22;40108;53.152;5.844;2022-10-22T13:37:29;16.90;89.00
54202;DHT22;40108;53.152;5.844;2022-10-22T13:39:56;16.90;87.70
54202;DHT22;40108;53.152;5.844;2022-10-22T13:42:21;16.80;87.90
54202;DHT22;40108;53.152;5.844;2022-10-22T13:44:47;16.80;87.70
54202;DHT22;40108;53.152;5.844;2022-10-22T13:47:27;16.80;87.50
54202;DHT22;40108;53.152;5.844;2022-10-22T13:49:55;16.90;87.10
54202;DHT22;40108;53.152;5.844;2022-10-22T13:52:41;16.80;86.00
54202;DHT22;40108;53.152;5.844;2022-10-22T13:55:15;16.80;86.40
54202;DHT22;40108;53.152;5.844;2022-10-22T13:57:41;16.80;87.00
54202;DHT22;40108;53.152;5.844;2022-10-22T14:00:10;16.80;87.30
54202;DHT22;40108;53.152;5.844;2022-10-22T14:02:36;16.90;86.90
54202;DHT22;40108;53.152;5.844;2022-10-22T14:05:02;16.90;86.80
54202;DHT22;40108;53.152;5.844;2022-10-22T14:07:29;16.80;86.50
54202;DHT22;40108;53.152;5.844;2022-10-22T14:09:55;16.80;86.40
54202;DHT22;40108;53.152;5.844;2022-10-22T14:12:20;16.70;86.90
54202;DHT22;40108;53.152;5.844;2022-10-22T14:14:46;16.70;87.20
54202;DHT22;40108;53.152;5.844;2022-10-22T14:17:13;16.70;87.20
54202;DHT22;40108;53.152;5.844;2022-10-22T14:19:46;16.60;87.30
54202;DHT22;40108;53.152;5.844;2022-10-22T14:22:16;16.60;86.50
54202;DHT22;40108;53.152;5.844;2022-10-22T14:24:43;16.50;86.90
54202;DHT22;40108;53.152;5.844;2022-10-22T14:27:14;16.50;87.30
54202;DHT22;40108;53.152;5.844;2022-10-22T14:29:40;16.40;87.40
54202;DHT22;40108;53.152;5.844;2022-10-22T14:32:17;16.40;87.40
54202;DHT22;40108;53.152;5.844;2022-10-22T14:34:46;16.40;86.50
54202;DHT22;40108;53.152;5.844;2022-10-22T14:37:18;16.50;85.20
54202;DHT22;40108;53.152;5.844;2022-10-22T14:39:45;16.50;84.90
54202;DHT22;40108;53.152;5.844;2022-10-22T14:42:16;16.40;84.70
54202;DHT22;40108;53.152;5.844;2022-10-22T14:44:42;16.30;84.30
54202;DHT22;40108;53.152;5.844;2022-10-22T14:47:08;16.20;84.20
54202;DHT22;40108;53.152;5.844;2022-10-22T14:49:33;16.10;84.20
54202;DHT22;40108;53.152;5.844;2022-10-22T14:51:59;16.10;84.00
54202;DHT22;40108;53.152;5.844;2022-10-22T14:54:25;15.90;84.00
54202;DHT22;40108;53.152;5.844;2022-10-22T14:56:51;15.90;84.20
54202;DHT22;40108;53.152;5.844;2022-10-22T14:59:16;15.80;84.70
54202;DHT22;40108;53.152;5.844;2022-10-22T15:01:42;15.70;85.00
54202;DHT22;40108;53.152;5.844;2022-10-22T15:04:08;15.70;85.30
54202;DHT22;40108;53.152;5.844;2022-10-22T15:06:34;15.60;85.50
54202;DHT22;40108;53.152;5.844;2022-10-22T15:09:00;15.60;85.70
54202;DHT22;40108;53.152;5.844;2022-10-22T15:11:26;15.50;85.90
54202;DHT22;40108;53.152;5.844;2022-10-22T15:13:52;15.50;86.10
54202;DHT22;40108;53.152;5.844;2022-10-22T15:16:18;15.40;86.00
54202;DHT22;40108;53.152;5.844;2022-10-22T15:18:44;15.30;86.30
54202;DHT22;40108;53.152;5.844;2022-10-22T15:21:18;15.20;86.40
54202;DHT22;40108;53.152;5.844;2022-10-22T15:23:44;15.10;86.60
54202;DHT22;40108;53.152;5.844;2022-10-22T15:26:11;15.10;86.70
54202;DHT22;40108;53.152;5.844;2022-10-22T15:28:38;15.10;86.80
54202;DHT22;40108;53.152;5.844;2022-10-22T15:31:05;15.00;87.00
54202;DHT22;40108;53.152;5.844;2022-10-22T15:33:30;14.90;87.10
54202;DHT22;40108;53.152;5.844;2022-10-22T15:35:56;14.90;87.30
54202;DHT22;40108;53.152;5.844;2022-10-22T15:38:28;14.80;87.40
54202;DHT22;40108;53.152;5.844;2022-10-22T15:41:02;14.70;87.50
54202;DHT22;40108;53.152;5.844;2022-10-22T15:43:28;14.70;87.70
54202;DHT22;40108;53.152;5.844;2022-10-22T15:46:14;14.70;87.80
54202;DHT22;40108;53.152;5.844;2022-10-22T15:48:40;14.60;87.90
54202;DHT22;40108;53.152;5.844;2022-10-22T15:51:10;14.60;88.00
54202;DHT22;40108;53.152;5.844;2022-10-22T15:53:36;14.60;88.10
54202;DHT22;40108;53.152;5.844;2022-10-22T15:56:02;14.50;88.20
54202;DHT22;40108;53.152;5.844;2022-10-22T15:58:28;14.40;88.50
54202;DHT22;40108;53.152;5.844;2022-10-22T16:00:53;14.40;88.50
54202;DHT22;40108;53.152;5.844;2022-10-22T16:03:19;14.30;88.70
54202;DHT22;40108;53.152;5.844;2022-10-22T16:05:51;14.20;88.80
54202;DHT22;40108;53.152;5.844;2022-10-22T16:08:19;14.20;88.90
54202;DHT22;40108;53.152;5.844;2022-10-22T16:10:46;14.10;89.10
54202;DHT22;40108;53.152;5.844;2022-10-22T16:13:13;14.10;89.20
54202;DHT22;40108;53.152;5.844;2022-10-22T16:15:39;14.00;89.30
54202;DHT22;40108;53.152;5.844;2022-10-22T16:18:05;13.90;89.40
54202;DHT22;40108;53.152;5.844;2022-10-22T16:20:30;13.80;89.50
54202;DHT22;40108;53.152;5.844;2022-10-22T16:22:56;13.80;89.70
54202;DHT22;40108;53.152;5.844;2022-10-22T16:25:22;13.70;89.80
54202;DHT22;40108;53.152;5.844;2022-10-22T16:27:50;13.60;89.80
54202;DHT22;40108;53.152;5.844;2022-10-22T16:30:16;13.60;90.00
54202;DHT22;40108;53.152;5.844;2022-10-22T16:32:41;13.50;90.10
54202;DHT22;40108;53.152;5.844;2022-10-22T16:35:07;13.40;90.30
54202;DHT22;40108;53.152;5.844;2022-10-22T16:37:33;13.40;90.30
54202;DHT22;40108;53.152;5.844;2022-10-22T16:39:59;13.30;90.40
54202;DHT22;40108;53.152;5.844;2022-10-22T16:42:25;13.20;90.60
54202;DHT22;40108;53.152;5.844;2022-10-22T16:44:50;13.20;90.70
54202;DHT22;40108;53.152;5.844;2022-10-22T16:47:16;13.10;90.70
54202;DHT22;40108;53.152;5.844;2022-10-22T16:49:42;13.10;90.90
54202;DHT22;40108;53.152;5.844;2022-10-22T16:52:07;13.00;90.90
54202;DHT22;40108;53.152;5.844;2022-10-22T16:54:33;12.90;91.00
54202;DHT22;40108;53.152;5.844;2022-10-22T16:56:59;12.90;91.10
54202;DHT22;40108;53.152;5.844;2022-10-22T16:59:24;12.80;91.20
54202;DHT22;40108;53.152;5.844;2022-10-22T17:01:50;12.70;91.30
54202;DHT22;40108;53.152;5.844;2022-10-22T17:04:16;12.70;91.30
54202;DHT22;40108;53.152;5.844;2022-10-22T17:06:42;12.70;91.30
54202;DHT22;40108;53.152;5.844;2022-10-22T17:09:08;12.60;91.60
54202;DHT22;40108;53.152;5.844;2022-10-22T17:11:35;12.50;91.70
54202;DHT22;40108;53.152;5.844;2022-10-22T17:14:01;12.40;92.10
54202;DHT22;40108;53.152;5.844;2022-10-22T17:16:28;12.40;92.10
54202;DHT22;40108;53.152;5.844;2022-10-22T17:18:54;12.40;92.20
54202;DHT22;40108;53.152;5.844;2022-10-22T17:21:21;12.30;92.30
54202;DHT22;40108;53.152;5.844;2022-10-22T17:23:48;12.30;92.50